createdAt,value
2023-05-12T01:25:08.709Z,63.96
2023-05-12T01:30:08.724Z,63.98
2023-05-12T01:35:08.754Z,63.97
2023-05-12T01:40:08.771Z,63.99
2023-05-12T01:45:08.788Z,63.98
2023-05-12T01:50:08.785Z,64.0
2023-05-12T01:55:08.764Z,63.97
2023-05-12T02:00:08.789Z,63.99
2023-05-12T02:05:08.915Z,63.97
2023-05-12T02:10:08.948Z,64.0
2023-05-12T02:15:07.932Z,64.0
2023-05-12T02:20:07.903Z,64.0
2023-05-12T02:25:08.889Z,63.98
2023-05-12T02:30:08.899Z,63.98
2023-05-12T02:35:08.883Z,63.99
2023-05-12T02:40:08.919Z,63.98
2023-05-12T02:45:08.959Z,63.99
2023-05-12T02:50:07.958Z,63.97
2023-05-12T02:55:07.968Z,63.97
2023-05-12T03:00:08.006Z,63.97
2023-05-12T03:05:08.047Z,63.97
2023-05-12T03:10:08.071Z,63.98
2023-05-12T03:15:08.056Z,63.98
2023-05-12T03:20:08.085Z,63.98
2023-05-12T03:25:08.080Z,63.97
2023-05-12T03:30:08.074Z,63.97
2023-05-12T03:35:08.054Z,63.99
2023-05-12T03:40:08.053Z,63.99
2023-05-12T03:45:08.034Z,63.99
2023-05-12T03:50:08.058Z,63.98
2023-05-12T03:55:08.062Z,63.98
2023-05-12T04:00:08.027Z,63.99
2023-05-12T04:05:02.150Z,64.0
2023-05-12T04:10:02.325Z,64.0
2023-05-12T04:15:02.436Z,63.97
2023-05-12T04:20:02.551Z,64.0
2023-05-12T04:25:02.603Z,64.0
2023-05-12T04:30:02.793Z,64.0
2023-05-12T04:35:02.910Z,64.0
2023-05-12T04:40:03.018Z,64.0
2023-05-12T04:45:02.428Z,63.99
2023-05-12T04:50:02.609Z,63.99
2023-05-12T04:55:02.926Z,64.01
2023-05-12T05:00:03.155Z,64.05
2023-05-12T05:05:02.250Z,64.07
2023-05-12T05:10:02.380Z,64.13
2023-05-12T05:15:02.409Z,64.15
2023-05-12T05:20:07.183Z,64.18
2023-05-12T05:25:02.420Z,64.18
2023-05-12T05:30:02.584Z,64.18
2023-05-12T05:35:02.711Z,64.24
2023-05-12T05:40:02.797Z,64.27
2023-05-12T05:45:02.924Z,64.29
2023-05-12T05:50:02.959Z,64.31
2023-05-12T05:55:02.072Z,64.36
2023-05-12T06:00:02.273Z,64.35
2023-05-12T06:05:02.443Z,64.37
2023-05-12T06:10:02.618Z,64.41
2023-05-12T06:15:02.734Z,64.43
2023-05-12T06:20:02.883Z,64.43
2023-05-12T06:25:03.604Z,64.45
2023-05-12T06:30:02.734Z,64.46
2023-05-12T06:35:02.831Z,64.43
2023-05-12T06:40:02.997Z,64.42
2023-05-12T06:45:02.111Z,64.42
2023-05-12T06:50:02.133Z,64.42
2023-05-12T06:55:02.184Z,64.36
2023-05-12T07:00:02.298Z,64.36
2023-05-12T07:05:02.489Z,64.29
2023-05-12T07:10:02.715Z,64.26
2023-05-12T07:15:02.960Z,64.21
2023-05-12T07:20:02.163Z,64.17
2023-05-12T07:25:02.442Z,64.17
2023-05-12T07:30:02.623Z,64.12
2023-05-12T07:35:02.749Z,64.09
2023-05-12T07:40:02.899Z,64.04
2023-05-12T07:45:03.101Z,63.99
2023-05-12T07:50:02.360Z,63.94
2023-05-12T07:55:02.569Z,63.89
2023-05-12T08:00:02.614Z,63.86
2023-05-12T08:05:02.776Z,63.84
2023-05-12T08:10:02.940Z,63.82
2023-05-12T08:15:02.099Z,63.8
2023-05-12T08:20:02.357Z,63.77
2023-05-12T08:25:02.468Z,63.71
2023-05-12T08:30:02.652Z,63.69
2023-05-12T08:35:02.728Z,63.67
2023-05-12T08:40:02.899Z,63.6
2023-05-12T08:45:03.210Z,63.57
2023-05-12T08:50:02.327Z,63.55
2023-05-12T08:55:03.506Z,63.51
2023-05-12T09:00:02.703Z,63.46
2023-05-12T09:05:03.139Z,63.42
2023-05-12T09:10:02.379Z,63.44
2023-05-12T09:15:02.669Z,63.42
2023-05-12T09:20:02.813Z,63.41
2023-05-12T09:25:03.098Z,63.4
2023-05-12T09:30:02.282Z,63.37
2023-05-12T09:35:02.384Z,63.34
2023-05-12T09:40:02.591Z,63.3
2023-05-12T09:45:02.682Z,63.26
2023-05-12T09:50:02.783Z,63.22
2023-05-12T09:55:02.871Z,63.19
2023-05-12T10:00:03.967Z,63.12
2023-05-12T10:05:03.121Z,63.08
2023-05-12T10:10:02.546Z,63.01
2023-05-12T10:15:02.808Z,62.92
2023-05-12T10:20:02.913Z,62.92
2023-05-12T10:25:03.063Z,62.92
2023-05-12T10:30:02.207Z,62.61
2023-05-12T10:35:02.302Z,62.49
2023-05-12T10:40:02.462Z,62.36
2023-05-12T10:45:02.479Z,62.29
2023-05-12T10:50:02.688Z,62.2
2023-05-12T10:55:02.843Z,62.09
2023-05-12T11:00:04.077Z,61.99
2023-05-12T11:05:03.056Z,61.89
2023-05-12T11:10:02.308Z,61.8
2023-05-12T11:15:02.484Z,61.7
2023-05-12T11:20:02.664Z,61.61
2023-05-12T11:25:02.780Z,61.57
2023-05-12T11:30:03.080Z,61.5
2023-05-12T11:35:02.340Z,61.43
2023-05-12T11:40:02.455Z,61.34
2023-05-12T11:45:02.589Z,61.24
2023-05-12T11:50:02.692Z,61.15
2023-05-12T11:55:02.857Z,61.06
2023-05-12T12:00:02.988Z,61.06
2023-05-12T12:05:02.150Z,60.93
2023-05-12T12:10:02.233Z,60.84
2023-05-12T12:15:02.484Z,60.73
2023-05-12T12:20:02.595Z,60.59
2023-05-12T12:25:02.832Z,60.46
2023-05-12T12:30:03.006Z,60.25
2023-05-12T12:35:02.125Z,60.05
2023-05-12T12:40:02.447Z,59.89
2023-05-12T12:45:02.680Z,59.75
2023-05-12T12:50:03.299Z,59.67
2023-05-12T12:55:02.730Z,59.67
2023-05-12T13:00:02.852Z,59.58
2023-05-12T13:05:03.106Z,59.52
2023-05-12T13:10:02.194Z,59.48
2023-05-12T13:15:02.272Z,59.45
2023-05-12T13:20:02.403Z,59.42
2023-05-12T13:25:03.254Z,59.3
2023-05-12T13:30:02.352Z,59.11
2023-05-12T13:35:02.456Z,58.98
2023-05-12T13:40:02.600Z,58.85
2023-05-12T13:45:02.732Z,58.77
2023-05-12T13:50:02.898Z,58.72
2023-05-12T13:55:03.041Z,58.61
2023-05-12T14:00:02.164Z,58.5
2023-05-12T14:05:02.341Z,58.42
2023-05-12T14:10:02.559Z,58.42
2023-05-12T14:15:19.729Z,58.29
2023-05-12T14:20:02.462Z,58.12
2023-05-12T14:25:02.547Z,57.99
2023-05-12T14:30:02.704Z,57.9
2023-05-12T14:35:02.916Z,57.83
2023-05-12T14:40:01.983Z,57.8
2023-05-12T14:45:02.326Z,57.79
2023-05-12T14:50:02.496Z,57.84
2023-05-12T14:55:02.725Z,57.84
2023-05-12T15:00:02.945Z,57.86
2023-05-12T15:05:02.151Z,57.89
2023-05-12T15:10:02.205Z,57.84
2023-05-12T15:15:02.450Z,57.8
2023-05-12T15:20:02.775Z,57.78
2023-05-12T15:25:02.947Z,57.78
2023-05-12T15:30:02.253Z,57.71
2023-05-12T15:35:02.700Z,57.71
2023-05-12T15:40:02.944Z,57.54
2023-05-12T15:45:02.203Z,57.55
2023-05-12T15:50:02.586Z,57.63
2023-05-12T15:55:02.708Z,57.69
2023-05-12T16:00:02.959Z,57.76
2023-05-12T16:05:02.397Z,57.82
2023-05-12T16:10:02.526Z,57.82
2023-05-12T16:15:02.671Z,57.82
2023-05-12T16:20:02.773Z,57.88
2023-05-12T16:25:02.905Z,57.91
2023-05-12T16:30:03.076Z,57.98
2023-05-12T16:35:02.139Z,58.05
2023-05-12T16:40:02.193Z,58.13
2023-05-12T16:45:02.372Z,58.21
2023-05-12T16:50:02.498Z,58.25
2023-05-12T16:55:02.572Z,58.29
2023-05-12T17:00:02.163Z,58.37
2023-05-12T17:05:02.232Z,58.37
2023-05-12T17:10:02.401Z,58.46
2023-05-12T17:15:07.901Z,58.57
2023-05-12T17:20:02.752Z,58.61
2023-05-12T17:25:02.875Z,58.67
2023-05-12T17:30:03.156Z,58.7
2023-05-12T17:35:02.242Z,58.68
2023-05-12T17:40:02.413Z,58.72
2023-05-12T17:45:02.620Z,58.74
2023-05-12T17:50:02.792Z,58.82
2023-05-12T17:55:02.933Z,58.9
2023-05-12T18:00:03.032Z,58.96
2023-05-12T18:05:02.219Z,59.04
2023-05-12T18:10:02.287Z,59.08
2023-05-12T18:15:02.446Z,59.14
2023-05-12T18:20:02.560Z,59.19
2023-05-12T18:25:02.725Z,59.25
2023-05-12T18:30:02.823Z,59.27
2023-05-12T18:35:02.964Z,59.34
2023-05-12T18:40:02.118Z,59.36
2023-05-12T18:45:02.235Z,59.44
2023-05-12T18:50:02.362Z,59.45
2023-05-12T18:55:02.481Z,59.49
2023-05-12T19:00:02.704Z,59.51
2023-05-12T19:05:02.881Z,59.58
2023-05-12T19:10:03.002Z,59.62
2023-05-12T19:15:02.226Z,59.67
2023-05-12T19:20:02.325Z,59.69
2023-05-12T19:25:02.374Z,59.76
2023-05-12T19:30:02.490Z,59.78
2023-05-12T19:35:02.558Z,59.78
2023-05-12T19:40:02.705Z,59.84
2023-05-12T19:45:02.826Z,59.88
2023-05-12T19:50:03.053Z,59.92
2023-05-12T19:55:02.138Z,59.92
2023-05-12T20:00:02.199Z,59.97
2023-05-12T20:05:02.443Z,60.02
2023-05-12T20:10:02.593Z,60.07
2023-05-12T20:15:02.756Z,60.07
2023-05-12T20:20:02.845Z,60.12
2023-05-12T20:25:02.965Z,60.15
2023-05-12T20:30:02.165Z,60.17
2023-05-12T20:35:02.713Z,60.17
2023-05-12T20:40:02.746Z,60.24
2023-05-12T20:45:02.827Z,60.25
2023-05-12T20:50:02.956Z,60.31
2023-05-12T20:55:02.024Z,60.31
2023-05-12T21:00:02.077Z,60.36
2023-05-12T21:05:02.153Z,60.36
2023-05-12T21:10:02.243Z,60.38
2023-05-12T21:15:02.503Z,60.43
2023-05-12T21:20:02.726Z,60.45
2023-05-12T21:25:02.858Z,60.47
2023-05-12T21:30:03.108Z,60.47
2023-05-12T21:35:02.271Z,60.47
2023-05-12T21:40:02.365Z,60.53
2023-05-12T21:45:02.509Z,60.53
2023-05-12T21:50:02.657Z,60.57
2023-05-12T21:55:02.763Z,60.6
2023-05-12T22:00:02.918Z,60.61
2023-05-12T22:05:15.881Z,60.65
2023-05-12T22:10:09.025Z,60.63
2023-05-12T22:15:08.054Z,60.63
2023-05-12T22:20:08.051Z,60.69
2023-05-12T22:25:08.118Z,60.69
2023-05-12T22:30:08.156Z,60.73
2023-05-12T22:35:08.146Z,60.73
2023-05-12T22:40:08.129Z,60.74
2023-05-12T22:45:08.096Z,60.76
2023-05-12T22:50:08.062Z,60.78
2023-05-12T22:55:08.043Z,60.79
2023-05-12T23:01:15.161Z,60.78
2023-05-12T23:05:08.153Z,60.79
2023-05-12T23:10:08.290Z,60.79
2023-05-12T23:15:08.298Z,60.78
2023-05-12T23:20:08.463Z,60.82
2023-05-12T23:25:08.461Z,60.82
2023-05-12T23:30:08.477Z,60.84
2023-05-12T23:35:08.457Z,60.84
2023-05-12T23:40:08.461Z,60.85
2023-05-12T23:45:08.483Z,60.84
2023-05-12T23:50:08.554Z,60.87
2023-05-12T23:55:08.612Z,60.87
